createdAt,value
2022-12-23T00:01:33.523Z,22.45
2022-12-23T00:04:03.755Z,22.41
2022-12-23T00:06:34.171Z,22.40
2022-12-23T00:09:03.792Z,22.44
2022-12-23T00:15:36.257Z,22.33
2022-12-23T00:18:06.750Z,22.37
2022-12-23T00:20:36.906Z,22.33
2022-12-23T00:23:07.613Z,22.34
2022-12-23T00:25:45.687Z,22.22
2022-12-23T00:28:24.770Z,22.17
2022-12-23T00:31:09.116Z,22.16
2022-12-23T00:33:42.289Z,22.17
2022-12-23T00:36:32.259Z,22.18
2022-12-23T00:39:20.639Z,22.04
2022-12-23T00:42:08.845Z,22.08
2022-12-23T00:44:39.080Z,22.07
2022-12-23T00:47:08.868Z,22.11
2022-12-23T00:49:44.964Z,22.03
2022-12-23T00:52:19.556Z,22.03
2022-12-23T00:54:49.728Z,22.07
2022-12-23T00:57:19.658Z,22.07
2022-12-23T00:59:49.334Z,22.04
2022-12-23T01:02:37.331Z,22.04
2022-12-23T01:05:26.217Z,21.93
2022-12-23T01:07:57.016Z,21.89
2022-12-23T01:10:27.366Z,21.86
2022-12-23T01:12:57.512Z,21.80
2022-12-23T01:15:27.966Z,21.75
2022-12-23T01:17:58.206Z,21.77
2022-12-23T01:20:28.318Z,21.70
2022-12-23T01:22:58.404Z,21.72
2022-12-23T01:25:28.721Z,21.73
2022-12-23T01:27:58.897Z,21.82
2022-12-23T01:30:29.544Z,21.72
2022-12-23T01:32:59.801Z,21.66
2022-12-23T01:35:29.856Z,21.63
2022-12-23T01:37:59.550Z,21.66
2022-12-23T01:40:29.529Z,21.65
2022-12-23T01:42:59.641Z,21.62
2022-12-23T01:45:34.920Z,21.65
2022-12-23T01:48:23.537Z,21.67
2022-12-23T01:50:56.447Z,21.66
2022-12-23T01:53:33.043Z,21.53
2022-12-23T01:56:06.245Z,21.63
2022-12-23T01:58:40.538Z,21.59
2022-12-23T02:01:30.207Z,21.59
2022-12-23T02:04:08.859Z,21.56
2022-12-23T02:07:02.881Z,21.56
2022-12-23T02:09:36.214Z,21.59
2022-12-23T02:12:27.550Z,21.57
2022-12-23T02:15:33.606Z,21.53
2022-12-23T02:18:37.260Z,21.62
2022-12-23T02:21:26.580Z,21.62
2022-12-23T02:24:06.081Z,21.60
2022-12-23T02:27:14.382Z,21.53
2022-12-23T02:30:08.287Z,21.52
2022-12-23T02:33:00.762Z,21.59
2022-12-23T02:35:48.604Z,21.53
2022-12-23T02:38:31.217Z,21.59
2022-12-23T02:41:10.857Z,21.53
2022-12-23T02:43:48.598Z,21.49
2022-12-23T02:46:33.443Z,21.47
2022-12-23T02:49:44.370Z,21.43
2022-12-23T02:52:20.031Z,21.45
2022-12-23T02:54:57.360Z,21.39
2022-12-23T02:57:32.450Z,21.41
2022-12-23T03:00:04.620Z,21.46
2022-12-23T03:02:40.999Z,21.47
2022-12-23T03:05:34.865Z,21.43
2022-12-23T03:08:08.712Z,21.43
2022-12-23T03:11:07.084Z,21.38
2022-12-23T03:13:53.220Z,21.32
2022-12-23T03:16:51.976Z,21.21
2022-12-23T03:19:28.227Z,21.22
2022-12-23T03:22:17.303Z,21.24
2022-12-23T03:24:56.383Z,21.31
2022-12-23T03:27:34.950Z,21.24
2022-12-23T03:30:20.439Z,21.19
2022-12-23T03:33:36.825Z,21.18
2022-12-23T03:36:17.121Z,21.14
2022-12-23T03:38:47.868Z,21.16
2022-12-23T03:41:27.488Z,21.05
2022-12-23T03:44:17.802Z,21.12
2022-12-23T03:46:58.052Z,21.19
2022-12-23T03:49:41.174Z,21.16
2022-12-23T03:52:21.912Z,21.08
2022-12-23T03:55:03.401Z,21.09
2022-12-23T03:57:46.470Z,21.06
2022-12-23T04:00:16.854Z,21.01
2022-12-23T04:02:59.650Z,20.92
2022-12-23T04:05:34.943Z,21.01
2022-12-23T04:08:11.075Z,21.12
2022-12-23T04:10:41.559Z,21.14
2022-12-23T04:13:11.910Z,20.94
2022-12-23T04:15:43.834Z,20.80
2022-12-23T04:18:14.388Z,20.77
2022-12-23T04:20:44.566Z,20.73
2022-12-23T04:23:14.844Z,20.61
2022-12-23T04:25:45.106Z,20.51
2022-12-23T04:28:15.236Z,20.37
2022-12-23T04:30:45.613Z,20.30
2022-12-23T04:33:15.879Z,20.23
2022-12-23T04:35:45.511Z,20.23
2022-12-23T04:38:15.850Z,20.33
2022-12-23T04:40:49.172Z,20.27
2022-12-23T04:43:19.365Z,20.24
2022-12-23T04:45:53.049Z,20.30
2022-12-23T04:48:23.368Z,20.46
2022-12-23T04:50:53.108Z,20.56
2022-12-23T04:53:23.259Z,20.60
2022-12-23T04:55:53.648Z,20.60
2022-12-23T04:58:26.252Z,20.58
2022-12-23T05:01:25.582Z,20.53
2022-12-23T05:03:55.831Z,20.51
2022-12-23T05:06:25.861Z,20.48
2022-12-23T05:08:56.082Z,20.46
2022-12-23T05:11:26.285Z,20.41
2022-12-23T05:13:56.558Z,20.44
2022-12-23T05:16:26.352Z,20.44
2022-12-23T05:18:56.260Z,20.46
2022-12-23T05:21:27.409Z,20.47
2022-12-23T05:23:58.096Z,20.46
2022-12-23T05:26:28.328Z,20.44
2022-12-23T05:28:58.631Z,20.46
2022-12-23T05:31:28.406Z,20.50
2022-12-23T05:34:04.035Z,20.46
2022-12-23T05:36:36.538Z,20.27
2022-12-23T05:39:06.986Z,20.08
2022-12-23T05:41:37.172Z,20.12
2022-12-23T05:44:07.407Z,20.15
2022-12-23T05:46:37.875Z,20.22
2022-12-23T05:49:08.868Z,20.08
2022-12-23T05:51:38.483Z,19.99
2022-12-23T05:54:08.297Z,19.97
2022-12-23T05:56:38.452Z,19.89
2022-12-23T05:59:08.618Z,19.66
2022-12-23T06:01:38.944Z,19.62
2022-12-23T06:04:09.351Z,19.54
2022-12-23T06:06:39.733Z,19.44
2022-12-23T06:09:10.508Z,19.39
2022-12-23T06:11:40.601Z,19.42
2022-12-23T06:14:11.629Z,19.39
2022-12-23T06:16:41.979Z,19.41
2022-12-23T06:19:12.221Z,19.59
2022-12-23T06:21:42.445Z,19.75
2022-12-23T06:24:12.769Z,19.85
2022-12-23T06:26:43.297Z,19.90
2022-12-23T06:29:13.631Z,19.90
2022-12-23T06:31:43.969Z,19.79
2022-12-23T06:34:13.769Z,19.62
2022-12-23T06:36:43.701Z,19.32
2022-12-23T06:39:14.002Z,19.35
2022-12-23T06:41:44.225Z,19.48
2022-12-23T06:44:14.503Z,19.57
2022-12-23T06:46:44.694Z,19.59
2022-12-23T06:49:14.686Z,19.69
2022-12-23T06:51:44.348Z,19.62
2022-12-23T06:54:14.590Z,19.62
2022-12-23T06:56:44.764Z,19.58
2022-12-23T06:59:14.919Z,19.52
2022-12-23T07:01:45.198Z,19.30
2022-12-23T07:04:15.477Z,19.38
2022-12-23T07:06:45.696Z,19.54
2022-12-23T07:10:10.957Z,19.66
2022-12-23T07:12:46.005Z,19.74
2022-12-23T07:15:19.284Z,19.72
2022-12-23T07:17:49.484Z,19.68
2022-12-23T07:20:19.846Z,19.62
2022-12-23T07:22:51.468Z,19.48
2022-12-23T07:25:21.561Z,19.55
2022-12-23T07:27:57.999Z,19.54
2022-12-23T07:30:28.649Z,19.45
2022-12-23T07:32:58.814Z,19.21
2022-12-23T07:35:28.864Z,19.17
2022-12-23T07:37:58.568Z,19.35
2022-12-23T07:40:29.221Z,19.45
2022-12-23T07:43:00.529Z,19.52
2022-12-23T07:45:31.530Z,19.55
2022-12-23T07:48:03.277Z,19.52
2022-12-23T07:50:33.463Z,19.35
2022-12-23T07:53:03.662Z,19.35
2022-12-23T07:55:33.874Z,19.18
2022-12-23T07:58:04.071Z,19.21
2022-12-23T08:00:34.096Z,19.31
2022-12-23T08:03:04.547Z,19.32
2022-12-23T08:05:34.922Z,19.31
2022-12-23T08:08:04.637Z,19.32
2022-12-23T08:10:34.543Z,19.38
2022-12-23T08:13:04.847Z,19.44
2022-12-23T08:15:34.495Z,19.36
2022-12-23T08:18:04.317Z,19.06
2022-12-23T08:20:34.553Z,19.18
2022-12-23T08:23:04.690Z,19.25
2022-12-23T08:25:34.823Z,19.32
2022-12-23T08:28:04.715Z,19.32
2022-12-23T08:30:35.074Z,19.21
2022-12-23T08:33:05.131Z,19.18
2022-12-23T08:35:35.361Z,19.25
2022-12-23T08:38:05.507Z,19.35
2022-12-23T08:40:35.887Z,19.25
2022-12-23T08:43:06.130Z,19.38
2022-12-23T08:45:40.085Z,19.44
2022-12-23T08:48:10.389Z,19.50
2022-12-23T08:50:40.881Z,19.52
2022-12-23T08:53:11.581Z,19.51
2022-12-23T08:55:44.225Z,19.54
2022-12-23T08:58:16.001Z,19.66
2022-12-23T09:00:46.224Z,19.69
2022-12-23T09:03:16.487Z,19.78
2022-12-23T09:05:46.264Z,19.85
2022-12-23T09:08:16.317Z,19.89
2022-12-23T09:10:46.681Z,19.99
2022-12-23T09:13:25.006Z,20.06
2022-12-23T09:15:58.214Z,20.13
2022-12-23T09:18:31.053Z,20.22
2022-12-23T09:21:05.963Z,20.30
2022-12-23T09:23:36.464Z,20.36
2022-12-23T09:26:07.403Z,20.43
2022-12-23T09:28:37.629Z,20.53
2022-12-23T09:31:12.634Z,20.56
2022-12-23T09:33:42.957Z,20.63
2022-12-23T09:36:12.757Z,20.74
2022-12-23T09:38:42.776Z,20.75
2022-12-23T09:41:31.143Z,20.84
2022-12-23T09:44:07.217Z,20.87
2022-12-23T09:46:39.820Z,20.91
2022-12-23T09:49:15.229Z,20.92
2022-12-23T09:51:46.958Z,21.05
2022-12-23T09:54:31.132Z,21.19
2022-12-23T09:57:06.712Z,21.28
2022-12-23T10:00:21.402Z,21.41
2022-12-23T10:03:05.182Z,21.49
2022-12-23T10:06:03.923Z,21.59
2022-12-23T10:08:40.108Z,21.70
2022-12-23T10:11:24.045Z,21.80
2022-12-23T10:14:05.527Z,21.92
2022-12-23T10:16:44.346Z,22.06
2022-12-23T10:19:33.737Z,22.20
2022-12-23T10:22:17.789Z,22.28
2022-12-23T10:24:49.924Z,22.38
2022-12-23T10:27:38.516Z,22.45
2022-12-23T10:30:51.567Z,22.61
2022-12-23T10:33:28.993Z,22.69
2022-12-23T10:36:24.041Z,22.73
2022-12-23T10:38:57.053Z,22.88
2022-12-23T10:41:59.463Z,22.96
2022-12-23T10:45:09.588Z,23.06
2022-12-23T10:48:07.407Z,23.16
2022-12-23T10:51:03.302Z,23.24
2022-12-23T10:54:00.755Z,23.29
2022-12-23T10:56:32.215Z,23.42
2022-12-23T10:59:03.429Z,23.42
2022-12-23T11:01:34.221Z,23.51
2022-12-23T11:04:15.659Z,23.67
2022-12-23T11:07:10.511Z,23.71
2022-12-23T11:09:47.508Z,23.74
2022-12-23T11:12:23.378Z,23.80
2022-12-23T11:14:58.781Z,23.85
2022-12-23T11:17:32.355Z,23.97
2022-12-23T11:20:13.307Z,24.11
2022-12-23T11:23:03.685Z,24.24
2022-12-23T11:25:45.133Z,24.26
2022-12-23T11:28:23.377Z,24.32
2022-12-23T11:31:00.567Z,24.53
2022-12-23T11:33:39.216Z,24.75
2022-12-23T11:36:15.434Z,24.80
2022-12-23T11:39:04.213Z,24.93
2022-12-23T11:41:46.186Z,24.97
2022-12-23T11:44:41.698Z,25.09
2022-12-23T11:47:26.763Z,25.09
2022-12-23T11:50:00.024Z,25.16
2022-12-23T11:52:32.854Z,25.27
2022-12-23T11:55:05.632Z,25.31
2022-12-23T11:57:43.677Z,25.33
2022-12-23T12:00:26.661Z,25.35
2022-12-23T12:03:00.537Z,25.54
2022-12-23T12:05:42.184Z,25.79
2022-12-23T12:08:16.436Z,25.93
2022-12-23T12:10:47.065Z,25.92
2022-12-23T12:13:41.820Z,25.93
2022-12-23T12:16:15.145Z,26.09
2022-12-23T12:18:53.638Z,26.40
2022-12-23T12:21:30.839Z,26.60
2022-12-23T12:24:19.206Z,26.73
2022-12-23T12:26:56.955Z,26.43
2022-12-23T12:29:47.492Z,26.57
2022-12-23T12:32:36.968Z,26.57
2022-12-23T12:35:44.583Z,26.65
2022-12-23T12:38:28.990Z,27.11
2022-12-23T12:41:34.270Z,27.22
2022-12-23T12:44:32.099Z,27.15
2022-12-23T12:47:36.718Z,27.30
2022-12-23T12:50:23.583Z,27.30
2022-12-23T12:52:55.965Z,27.52
2022-12-23T12:55:34.833Z,27.79
2022-12-23T12:58:05.085Z,27.70
2022-12-23T13:00:51.930Z,27.52
2022-12-23T13:03:31.606Z,27.51
2022-12-23T13:06:15.191Z,27.99
2022-12-23T13:09:11.230Z,28.18
2022-12-23T13:11:49.771Z,28.17
2022-12-23T13:14:48.836Z,28.25
2022-12-23T13:17:40.117Z,28.36
2022-12-23T13:20:34.523Z,28.48
2022-12-23T13:23:41.657Z,28.71
2022-12-23T13:26:24.073Z,28.88
2022-12-23T13:29:05.680Z,28.95
2022-12-23T13:31:35.895Z,29.02
2022-12-23T13:34:26.615Z,29.30
2022-12-23T13:37:02.124Z,29.43
2022-12-23T13:39:50.624Z,29.72
2022-12-23T13:42:33.790Z,29.78
2022-12-23T13:45:05.482Z,29.52
2022-12-23T13:48:05.437Z,29.50
2022-12-23T13:50:47.791Z,29.74
2022-12-23T13:53:26.998Z,29.77
2022-12-23T13:56:23.704Z,30.10
2022-12-23T13:58:54.735Z,30.25
2022-12-23T14:01:42.233Z,30.45
2022-12-23T14:05:04.990Z,30.28
2022-12-23T14:07:35.939Z,30.38
2022-12-23T14:10:24.553Z,30.54
2022-12-23T14:12:59.932Z,30.65
2022-12-23T14:15:40.460Z,30.80
2022-12-23T14:18:26.691Z,30.31
2022-12-23T14:21:26.463Z,30.36
2022-12-23T14:24:31.877Z,30.58
2022-12-23T14:27:38.133Z,30.87
2022-12-23T14:30:17.421Z,31.26
2022-12-23T14:33:05.335Z,31.50
2022-12-23T14:35:42.174Z,31.57
2022-12-23T14:38:12.888Z,31.47
2022-12-23T14:40:53.316Z,31.30
2022-12-23T14:43:47.720Z,31.63
2022-12-23T14:46:41.200Z,31.65
2022-12-23T14:49:38.232Z,31.88
2022-12-23T14:52:40.921Z,32.16
2022-12-23T14:55:32.608Z,32.11
2022-12-23T14:58:14.824Z,32.43
2022-12-23T15:00:50.952Z,32.65
2022-12-23T15:03:21.909Z,32.94
2022-12-23T15:05:52.551Z,32.93
2022-12-23T15:08:42.430Z,32.75
2022-12-23T15:11:22.918Z,32.39
2022-12-23T15:13:55.156Z,32.46
2022-12-23T15:16:38.260Z,32.77
2022-12-23T15:19:29.263Z,32.83
2022-12-23T15:22:21.232Z,32.94
2022-12-23T15:24:52.673Z,32.80
2022-12-23T15:27:28.428Z,32.72
2022-12-23T15:30:00.256Z,32.91
2022-12-23T15:32:31.355Z,32.51
2022-12-23T15:35:07.592Z,32.51
2022-12-23T15:37:37.914Z,32.60
2022-12-23T15:40:13.422Z,32.97
2022-12-23T15:42:50.238Z,33.23
2022-12-23T15:45:41.289Z,33.28
2022-12-23T15:48:44.298Z,33.33
2022-12-23T15:54:35.715Z,33.23
2022-12-23T15:57:06.854Z,33.37
2022-12-23T15:59:40.562Z,33.72
2022-12-23T16:05:39.338Z,33.71
2022-12-23T16:08:18.510Z,33.61
2022-12-23T16:11:18.960Z,33.72
2022-12-23T16:14:03.947Z,33.81
2022-12-23T16:16:44.070Z,33.55
2022-12-23T16:19:49.134Z,33.89
2022-12-23T16:22:39.732Z,33.57
2022-12-23T16:25:32.447Z,33.96
2022-12-23T16:28:16.303Z,34.04
2022-12-23T16:30:50.667Z,33.57
2022-12-23T16:33:40.893Z,33.58
2022-12-23T16:36:29.286Z,34.09
2022-12-23T16:39:08.626Z,34.09
2022-12-23T16:41:38.756Z,34.04
2022-12-23T16:44:08.884Z,33.74
2022-12-23T16:46:42.822Z,33.61
2022-12-23T16:49:17.960Z,34.15
2022-12-23T16:51:48.466Z,33.88
2022-12-23T16:54:20.815Z,34.31
2022-12-23T16:56:53.582Z,34.32
2022-12-23T16:59:26.104Z,34.20
2022-12-23T17:02:03.122Z,34.63
2022-12-23T17:04:33.910Z,34.60
2022-12-23T17:07:07.226Z,34.27
2022-12-23T17:09:37.337Z,34.15
2022-12-23T17:12:07.687Z,33.99
2022-12-23T17:14:37.965Z,34.13
2022-12-23T17:17:16.756Z,34.39
2022-12-23T17:19:47.097Z,34.68
2022-12-23T17:22:17.343Z,33.95
2022-12-23T17:24:47.731Z,34.26
2022-12-23T17:27:21.898Z,34.49
2022-12-23T17:29:52.270Z,34.39
2022-12-23T17:32:22.472Z,34.26
2022-12-23T17:34:52.821Z,34.43
2022-12-23T17:37:24.069Z,34.64
2022-12-23T17:39:54.299Z,34.40
2022-12-23T17:42:26.021Z,34.43
2022-12-23T17:44:56.570Z,34.53
2022-12-23T17:47:26.744Z,34.29
2022-12-23T17:49:56.930Z,34.31
2022-12-23T17:52:27.881Z,34.01
2022-12-23T17:54:58.224Z,33.76
2022-12-23T17:57:29.142Z,34.17
2022-12-23T17:59:59.357Z,34.23
2022-12-23T18:02:34.070Z,34.31
2022-12-23T18:05:04.794Z,34.33
2022-12-23T18:07:34.985Z,34.26
2022-12-23T18:10:05.448Z,34.22
2022-12-23T18:12:38.995Z,34.25
2022-12-23T18:15:22.841Z,33.78
2022-12-23T18:17:54.302Z,33.59
2022-12-23T18:20:25.894Z,33.81
2022-12-23T18:22:56.892Z,33.38
2022-12-23T18:25:28.725Z,33.26
2022-12-23T18:27:58.946Z,33.45
2022-12-23T18:30:29.256Z,33.58
2022-12-23T18:32:59.458Z,33.51
2022-12-23T18:35:35.746Z,33.62
2022-12-23T18:38:05.848Z,33.82
2022-12-23T18:40:35.987Z,33.67
2022-12-23T18:43:06.482Z,33.40
2022-12-23T18:45:41.017Z,33.44
2022-12-23T18:48:11.842Z,33.31
2022-12-23T18:50:44.167Z,33.10
2022-12-23T18:53:25.693Z,33.20
2022-12-23T18:55:56.849Z,33.18
2022-12-23T18:58:27.089Z,32.90
2022-12-23T19:00:58.047Z,32.79
2022-12-23T19:03:31.454Z,32.72
2022-12-23T19:06:07.927Z,32.66
2022-12-23T19:08:38.872Z,32.66
2022-12-23T19:11:18.505Z,32.65
2022-12-23T19:13:48.868Z,32.69
2022-12-23T19:16:23.267Z,32.57
2022-12-23T19:18:53.899Z,32.28
2022-12-23T19:21:24.084Z,32.32
2022-12-23T19:23:54.265Z,32.35
2022-12-23T19:26:24.454Z,32.32
2022-12-23T19:28:54.673Z,32.48
2022-12-23T19:31:24.970Z,32.35
2022-12-23T19:33:55.314Z,32.35
2022-12-23T19:36:25.763Z,32.45
2022-12-23T19:38:58.262Z,32.48
2022-12-23T19:41:28.475Z,32.21
2022-12-23T19:43:58.605Z,32.09
2022-12-23T19:46:28.815Z,32.05
2022-12-23T19:48:59.062Z,31.91
2022-12-23T19:51:29.211Z,31.84
2022-12-23T19:53:59.374Z,31.81
2022-12-23T19:56:31.641Z,31.87
2022-12-23T19:59:01.887Z,31.80
2022-12-23T20:01:32.167Z,31.82
2022-12-23T20:04:02.512Z,31.73
2022-12-23T20:06:35.618Z,31.70
2022-12-23T20:09:07.576Z,31.74
2022-12-23T20:11:43.495Z,31.67
2022-12-23T20:14:13.935Z,31.44
2022-12-23T20:16:44.866Z,31.53
2022-12-23T20:19:15.062Z,31.41
2022-12-23T20:21:48.766Z,31.55
2022-12-23T20:24:19.014Z,31.48
2022-12-23T20:26:49.432Z,31.34
2022-12-23T20:29:19.593Z,31.92
2022-12-23T20:31:49.846Z,31.61
2022-12-23T20:34:20.187Z,31.48
2022-12-23T20:36:50.612Z,31.41
2022-12-23T20:39:20.824Z,31.26
2022-12-23T20:41:50.832Z,31.16
2022-12-23T20:44:34.548Z,31.26
2022-12-23T20:47:07.373Z,31.00
2022-12-23T20:49:37.856Z,31.03
2022-12-23T20:52:08.148Z,30.93
2022-12-23T20:54:38.346Z,30.86
2022-12-23T20:57:08.543Z,30.76
2022-12-23T20:59:38.710Z,30.61
2022-12-23T21:02:08.817Z,30.51
2022-12-23T21:04:39.314Z,30.48
2022-12-23T21:07:09.933Z,30.39
2022-12-23T21:09:40.137Z,30.39
2022-12-23T21:12:10.457Z,30.17
2022-12-23T21:14:40.711Z,30.10
2022-12-23T21:17:10.940Z,29.88
2022-12-23T21:19:40.947Z,29.88
2022-12-23T21:22:11.211Z,29.85
2022-12-23T21:24:41.573Z,29.66
2022-12-23T21:27:11.821Z,29.57
2022-12-23T21:29:41.994Z,29.46
2022-12-23T21:32:12.217Z,29.29
2022-12-23T21:34:42.433Z,29.22
2022-12-23T21:37:12.762Z,29.02
2022-12-23T21:39:43.094Z,28.91
2022-12-23T21:42:13.424Z,28.88
2022-12-23T21:44:43.516Z,28.82
2022-12-23T21:47:13.903Z,28.85
2022-12-23T21:49:44.977Z,29.12
2022-12-23T21:52:15.200Z,28.71
2022-12-23T21:54:45.465Z,28.39
2022-12-23T21:57:15.779Z,28.07
2022-12-23T21:59:45.922Z,27.92
2022-12-23T22:02:19.149Z,27.82
2022-12-23T22:04:49.514Z,27.62
2022-12-23T22:07:20.059Z,27.49
2022-12-23T22:09:50.289Z,27.32
2022-12-23T22:12:20.491Z,27.21
2022-12-23T22:14:50.716Z,27.15
2022-12-23T22:17:20.970Z,27.01
2022-12-23T22:19:51.097Z,26.92
2022-12-23T22:22:21.479Z,26.81
2022-12-23T22:24:51.742Z,26.77
2022-12-23T22:27:22.028Z,26.64
2022-12-23T22:29:52.417Z,26.61
2022-12-23T22:32:22.590Z,26.53
2022-12-23T22:34:52.886Z,26.46
2022-12-23T22:37:23.176Z,26.42
2022-12-23T22:39:53.366Z,26.33
2022-12-23T22:42:23.606Z,26.23
2022-12-23T22:44:53.839Z,26.32
2022-12-23T22:47:24.257Z,26.28
2022-12-23T22:49:54.454Z,26.10
2022-12-23T22:52:24.783Z,26.03
2022-12-23T22:54:54.969Z,26.02
2022-12-23T22:57:25.115Z,26.09
2022-12-23T22:59:55.266Z,26.06
2022-12-23T23:02:27.229Z,26.03
2022-12-23T23:04:57.534Z,25.98
2022-12-23T23:07:28.114Z,25.84
2022-12-23T23:09:58.309Z,25.82
2022-12-23T23:12:28.603Z,25.75
2022-12-23T23:14:58.866Z,25.68
2022-12-23T23:17:31.048Z,25.61
2022-12-23T23:20:01.352Z,25.51
2022-12-23T23:22:31.711Z,25.42
2022-12-23T23:25:02.061Z,25.33
2022-12-23T23:27:32.399Z,25.14
2022-12-23T23:30:02.411Z,25.14
2022-12-23T23:32:32.733Z,25.03
2022-12-23T23:35:08.558Z,24.99
2022-12-23T23:37:40.799Z,24.89
2022-12-23T23:40:10.655Z,24.87
2022-12-23T23:42:40.848Z,24.76
2022-12-23T23:45:11.651Z,24.79
2022-12-23T23:47:42.021Z,24.84
2022-12-23T23:50:12.493Z,24.79
2022-12-23T23:52:42.501Z,24.72
2022-12-23T23:55:13.056Z,24.65
2022-12-23T23:57:43.395Z,24.68
